createdAt,value
2023-04-19T00:00:22.207Z,8.68
2023-04-19T00:01:26.486Z,8.63
2023-04-19T00:02:29.459Z,8.58
2023-04-19T00:03:32.512Z,8.54
2023-04-19T00:04:36.902Z,8.46
2023-04-19T00:05:41.541Z,8.49
2023-04-19T00:06:44.274Z,8.49
2023-04-19T00:07:46.827Z,8.48
2023-04-19T00:08:48.813Z,8.50
2023-04-19T00:09:51.051Z,8.49
2023-04-19T00:10:53.827Z,8.45
2023-04-19T00:11:55.936Z,8.44
2023-04-19T00:12:58.248Z,8.47
2023-04-19T00:14:00.347Z,8.52
2023-04-19T00:15:02.796Z,8.50
2023-04-19T00:16:06.670Z,8.51
2023-04-19T00:17:10.816Z,8.51
2023-04-19T00:18:13.237Z,8.47
2023-04-19T00:19:15.660Z,8.47
2023-04-19T00:20:18.165Z,8.40
2023-04-19T00:21:20.485Z,8.43
2023-04-19T00:22:22.599Z,8.42
2023-04-19T00:23:25.304Z,8.41
2023-04-19T00:24:28.603Z,8.44
2023-04-19T00:25:31.376Z,8.46
2023-04-19T00:26:33.943Z,8.46
2023-04-19T00:27:36.641Z,8.43
2023-04-19T00:28:38.831Z,8.41
2023-04-19T00:29:40.926Z,8.36
2023-04-19T00:30:43.028Z,8.31
2023-04-19T00:31:46.191Z,8.33
2023-04-19T00:32:48.742Z,8.29
2023-04-19T00:33:52.013Z,8.29
2023-04-19T00:34:54.856Z,8.27
2023-04-19T00:35:58.236Z,8.23
2023-04-19T00:37:00.816Z,8.24
2023-04-19T00:38:02.863Z,8.18
2023-04-19T00:39:05.501Z,8.14
2023-04-19T00:40:09.515Z,8.16
2023-04-19T00:41:12.513Z,8.15
2023-04-19T00:42:15.339Z,8.14
2023-04-19T00:43:19.163Z,8.16
2023-04-19T00:44:21.608Z,8.09
2023-04-19T00:45:24.815Z,8.09
2023-04-19T00:46:27.608Z,8.10
2023-04-19T00:47:30.267Z,8.10
2023-04-19T00:48:35.779Z,8.13
2023-04-19T00:49:38.139Z,8.14
2023-04-19T00:50:43.078Z,8.12
2023-04-19T00:51:46.662Z,8.10
2023-04-19T00:52:49.078Z,8.13
2023-04-19T00:53:52.193Z,8.14
2023-04-19T00:54:57.666Z,8.11
2023-04-19T00:56:04.199Z,8.12
2023-04-19T00:57:06.576Z,8.14
2023-04-19T00:58:12.037Z,8.14
2023-04-19T00:59:15.615Z,8.15
2023-04-19T01:00:19.291Z,8.15
2023-04-19T01:01:23.108Z,8.12
2023-04-19T01:02:25.561Z,8.12
2023-04-19T01:03:28.694Z,8.10
2023-04-19T01:04:31.614Z,8.12
2023-04-19T01:05:34.244Z,8.14
2023-04-19T01:06:38.049Z,8.13
2023-04-19T01:07:41.152Z,8.08
2023-04-19T01:08:43.704Z,8.05
2023-04-19T01:09:46.634Z,8.04
2023-04-19T01:10:49.528Z,8.04
2023-04-19T01:11:51.904Z,8.08
2023-04-19T01:12:53.994Z,8.01
2023-04-19T01:13:57.966Z,7.95
2023-04-19T01:15:00.103Z,7.88
2023-04-19T01:16:02.259Z,7.87
2023-04-19T01:17:05.226Z,7.83
2023-04-19T01:18:07.558Z,7.80
2023-04-19T01:19:09.822Z,7.76
2023-04-19T01:20:12.941Z,7.76
2023-04-19T01:21:16.240Z,7.79
2023-04-19T01:22:23.086Z,7.83
2023-04-19T01:23:25.864Z,7.84
2023-04-19T01:24:28.320Z,7.88
2023-04-19T01:25:30.710Z,7.83
2023-04-19T01:26:34.974Z,7.84
2023-04-19T01:27:39.546Z,7.78
2023-04-19T01:28:41.895Z,7.79
2023-04-19T01:29:45.396Z,7.80
2023-04-19T01:30:49.672Z,7.80
2023-04-19T01:31:53.779Z,7.80
2023-04-19T01:32:56.238Z,7.81
2023-04-19T01:33:58.805Z,7.79
2023-04-19T01:35:01.241Z,7.80
2023-04-19T01:36:06.319Z,7.78
2023-04-19T01:37:09.631Z,7.75
2023-04-19T01:38:11.838Z,7.75
2023-04-19T01:39:16.273Z,7.77
2023-04-19T01:40:19.887Z,7.78
2023-04-19T01:41:24.038Z,7.73
2023-04-19T01:42:26.638Z,7.75
2023-04-19T01:43:29.257Z,7.74
2023-04-19T01:44:31.618Z,7.73
2023-04-19T01:45:37.399Z,7.71
2023-04-19T01:46:42.135Z,7.73
2023-04-19T01:47:45.291Z,7.72
2023-04-19T01:48:47.460Z,7.72
2023-04-19T01:49:50.432Z,7.68
2023-04-19T01:50:53.179Z,7.62
2023-04-19T01:51:55.653Z,7.62
2023-04-19T01:52:58.369Z,7.64
2023-04-19T01:54:02.129Z,7.64
2023-04-19T01:55:05.075Z,7.60
2023-04-19T01:56:10.452Z,7.61
2023-04-19T01:57:13.321Z,7.59
2023-04-19T01:58:15.993Z,7.59
2023-04-19T01:59:18.116Z,7.63
2023-04-19T02:00:21.698Z,7.59
2023-04-19T02:01:24.147Z,7.60
2023-04-19T02:02:27.260Z,7.63
2023-04-19T02:03:30.536Z,7.63
2023-04-19T02:04:36.363Z,7.62
2023-04-19T02:05:40.465Z,7.65
2023-04-19T02:06:42.908Z,7.64
2023-04-19T02:07:45.517Z,7.63
2023-04-19T02:08:48.929Z,7.65
2023-04-19T02:09:51.385Z,7.65
2023-04-19T02:10:55.219Z,7.66
2023-04-19T02:11:58.576Z,7.62
2023-04-19T02:13:02.005Z,7.60
2023-04-19T02:14:05.039Z,7.50
2023-04-19T02:15:08.137Z,7.50
2023-04-19T02:16:11.906Z,7.47
2023-04-19T02:17:14.256Z,7.40
2023-04-19T02:18:17.021Z,7.43
2023-04-19T02:19:20.637Z,7.36
2023-04-19T02:20:23.937Z,7.45
2023-04-19T02:21:26.906Z,7.45
2023-04-19T02:22:29.687Z,7.51
2023-04-19T02:23:32.013Z,7.54
2023-04-19T02:24:35.379Z,7.61
2023-04-19T02:25:37.878Z,7.63
2023-04-19T02:26:40.338Z,7.68
2023-04-19T02:27:42.791Z,7.70
2023-04-19T02:28:45.582Z,7.78
2023-04-19T02:29:48.060Z,7.79
2023-04-19T02:30:50.491Z,7.80
2023-04-19T02:31:52.888Z,7.88
2023-04-19T02:32:55.558Z,7.94
2023-04-19T02:33:58.142Z,7.92
2023-04-19T02:35:01.935Z,7.81
2023-04-19T02:36:05.820Z,7.86
2023-04-19T02:37:08.958Z,7.94
2023-04-19T02:38:11.160Z,7.95
2023-04-19T02:39:14.419Z,7.96
2023-04-19T02:40:16.974Z,7.99
2023-04-19T02:41:20.639Z,7.95
2023-04-19T02:42:23.356Z,7.95
2023-04-19T02:43:25.993Z,7.95
2023-04-19T02:44:28.342Z,7.96
2023-04-19T02:45:30.950Z,7.98
2023-04-19T02:46:33.287Z,7.98
2023-04-19T02:47:35.845Z,8.01
2023-04-19T02:48:38.746Z,7.99
2023-04-19T02:49:42.119Z,7.98
2023-04-19T02:50:45.296Z,8.03
2023-04-19T02:51:47.808Z,8.04
2023-04-19T02:52:50.260Z,7.81
2023-04-19T02:53:53.034Z,7.83
2023-04-19T02:54:55.760Z,7.88
2023-04-19T02:55:58.256Z,7.90
2023-04-19T02:57:01.297Z,7.84
2023-04-19T02:58:04.943Z,7.82
2023-04-19T02:59:08.985Z,7.82
2023-04-19T03:00:12.885Z,7.71
2023-04-19T03:01:17.552Z,7.63
2023-04-19T03:02:21.150Z,7.50
2023-04-19T03:03:23.595Z,7.54
2023-04-19T03:04:26.500Z,7.55
2023-04-19T03:05:29.358Z,7.57
2023-04-19T03:06:32.284Z,7.60
2023-04-19T03:07:35.491Z,7.57
2023-04-19T03:08:38.185Z,7.56
2023-04-19T03:09:41.029Z,7.61
2023-04-19T03:10:43.724Z,7.69
2023-04-19T03:11:46.021Z,7.73
2023-04-19T03:12:48.341Z,7.70
2023-04-19T03:13:51.061Z,7.66
2023-04-19T03:14:53.161Z,7.53
2023-04-19T03:15:56.705Z,7.56
2023-04-19T03:16:59.128Z,7.65
2023-04-19T03:18:01.978Z,7.73
2023-04-19T03:19:06.155Z,7.76
2023-04-19T03:20:11.930Z,7.77
2023-04-19T03:21:14.565Z,7.87
2023-04-19T03:22:18.716Z,7.83
2023-04-19T03:23:21.605Z,7.93
2023-04-19T03:24:31.393Z,8.04
2023-04-19T03:25:35.484Z,7.99
2023-04-19T03:26:48.739Z,7.98
2023-04-19T03:27:52.539Z,7.91
2023-04-19T03:28:56.730Z,7.92
2023-04-19T03:30:04.754Z,7.94
2023-04-19T03:31:07.580Z,7.98
2023-04-19T03:32:11.513Z,7.99
2023-04-19T03:33:13.976Z,8.03
2023-04-19T03:34:17.121Z,7.99
2023-04-19T03:35:23.309Z,7.95
2023-04-19T03:36:27.276Z,8.01
2023-04-19T03:37:29.703Z,8.06
2023-04-19T03:38:32.002Z,7.92
2023-04-19T03:39:35.248Z,7.92
2023-04-19T03:40:39.600Z,7.93
2023-04-19T03:41:42.684Z,7.91
2023-04-19T03:42:56.060Z,7.91
2023-04-19T03:44:02.947Z,7.93
2023-04-19T03:45:06.321Z,7.86
2023-04-19T03:46:10.505Z,7.79
2023-04-19T03:47:13.134Z,7.78
2023-04-19T03:48:17.321Z,7.83
2023-04-19T03:49:21.232Z,7.73
2023-04-19T03:50:25.492Z,7.76
2023-04-19T03:51:30.987Z,7.81
2023-04-19T03:52:33.413Z,7.80
2023-04-19T03:53:37.718Z,7.78
2023-04-19T03:54:40.454Z,7.69
2023-04-19T03:55:45.316Z,7.63
2023-04-19T03:56:47.878Z,7.64
2023-04-19T03:57:50.879Z,7.65
2023-04-19T03:59:10.329Z,7.61
2023-04-19T04:00:15.192Z,7.50
2023-04-19T04:01:18.669Z,7.46
2023-04-19T04:02:22.112Z,7.42
2023-04-19T04:03:24.756Z,7.40
2023-04-19T04:04:28.758Z,7.44
2023-04-19T04:05:31.842Z,7.47
2023-04-19T04:06:35.554Z,7.48
2023-04-19T04:07:37.679Z,7.40
2023-04-19T04:08:40.189Z,7.38
2023-04-19T04:09:42.635Z,7.35
2023-04-19T04:10:45.379Z,7.36
2023-04-19T04:11:48.675Z,7.41
2023-04-19T04:12:51.578Z,7.45
2023-04-19T04:13:56.682Z,7.51
2023-04-19T04:15:00.893Z,7.58
2023-04-19T04:16:04.338Z,7.67
2023-04-19T04:17:07.823Z,7.77
2023-04-19T04:18:11.161Z,7.85
2023-04-19T04:19:14.116Z,7.92
2023-04-19T04:20:18.496Z,8.02
2023-04-19T04:21:21.966Z,8.11
2023-04-19T04:22:24.125Z,8.10
2023-04-19T04:23:27.954Z,8.11
2023-04-19T04:24:32.572Z,8.20
2023-04-19T04:25:37.700Z,8.29
2023-04-19T04:26:41.811Z,8.37
2023-04-19T04:27:52.057Z,8.38
2023-04-19T04:28:55.685Z,8.40
2023-04-19T04:29:58.028Z,8.44
2023-04-19T04:31:01.042Z,8.44
2023-04-19T04:32:10.156Z,8.50
2023-04-19T04:33:15.138Z,8.46
2023-04-19T04:34:18.184Z,8.52
2023-04-19T04:35:22.565Z,8.51
2023-04-19T04:36:28.747Z,8.55
2023-04-19T04:37:35.362Z,8.55
2023-04-19T04:38:37.689Z,8.59
2023-04-19T04:39:40.944Z,8.49
2023-04-19T04:40:53.546Z,8.56
2023-04-19T04:41:57.259Z,8.62
2023-04-19T04:43:02.019Z,8.64
2023-04-19T04:44:22.558Z,8.65
2023-04-19T04:45:12.488Z,8.67
2023-04-19T04:46:15.927Z,8.67
2023-04-19T04:47:18.850Z,8.69
2023-04-19T04:48:23.906Z,8.73
2023-04-19T04:49:26.311Z,8.74
2023-04-19T04:50:28.843Z,8.78
2023-04-19T04:51:31.832Z,8.83
2023-04-19T04:52:34.796Z,8.88
2023-04-19T04:53:38.930Z,8.92
2023-04-19T04:54:41.333Z,8.95
2023-04-19T04:55:46.613Z,8.98
2023-04-19T04:56:49.624Z,8.95
2023-04-19T04:57:52.096Z,8.98
2023-04-19T04:58:57.451Z,9.05
2023-04-19T05:00:02.786Z,9.02
2023-04-19T05:01:06.834Z,9.04
2023-04-19T05:02:11.620Z,9.06
2023-04-19T05:03:15.979Z,9.10
2023-04-19T05:04:20.971Z,9.09
2023-04-19T05:05:23.554Z,9.15
2023-04-19T05:06:26.345Z,9.23
2023-04-19T05:07:29.110Z,9.27
2023-04-19T05:08:33.862Z,9.25
2023-04-19T05:09:38.083Z,9.29
2023-04-19T05:10:40.503Z,9.31
2023-04-19T05:11:44.074Z,9.23
2023-04-19T05:12:46.482Z,9.17
2023-04-19T05:13:49.320Z,9.17
2023-04-19T05:14:53.361Z,9.15
2023-04-19T05:15:56.748Z,9.15
2023-04-19T05:17:00.411Z,9.25
2023-04-19T05:18:03.164Z,9.25
2023-04-19T05:19:05.536Z,9.29
2023-04-19T05:20:10.635Z,9.27
2023-04-19T05:21:13.531Z,9.27
2023-04-19T05:22:17.515Z,9.27
2023-04-19T05:23:20.793Z,9.29
2023-04-19T05:24:23.659Z,9.36
2023-04-19T05:25:26.908Z,9.41
2023-04-19T05:26:29.812Z,9.49
2023-04-19T05:27:32.457Z,9.56
2023-04-19T05:28:34.671Z,9.61
2023-04-19T05:29:39.069Z,9.70
2023-04-19T05:30:42.170Z,9.72
2023-04-19T05:31:45.244Z,9.77
2023-04-19T05:32:56.079Z,9.81
2023-04-19T05:33:58.440Z,9.85
2023-04-19T05:35:02.333Z,9.80
2023-04-19T05:36:06.015Z,9.66
2023-04-19T05:37:08.555Z,9.65
2023-04-19T05:38:11.309Z,9.65
2023-04-19T05:39:13.837Z,9.70
2023-04-19T05:40:18.681Z,9.78
2023-04-19T05:41:21.706Z,9.84
2023-04-19T05:42:24.618Z,9.87
2023-04-19T05:43:27.796Z,9.95
2023-04-19T05:44:31.158Z,10.03
2023-04-19T05:45:33.587Z,10.11
2023-04-19T05:46:36.318Z,10.20
2023-04-19T05:47:40.245Z,10.25
2023-04-19T05:49:01.368Z,10.19
2023-04-19T05:50:22.557Z,10.16
2023-04-19T05:51:29.870Z,10.18
2023-04-19T05:52:46.314Z,10.23
2023-04-19T05:53:49.734Z,10.33
2023-04-19T05:54:52.309Z,10.36
2023-04-19T05:55:54.643Z,10.32
2023-04-19T05:56:57.058Z,10.35
2023-04-19T05:57:59.466Z,10.39
2023-04-19T05:59:03.716Z,10.41
2023-04-19T06:00:09.549Z,10.40
2023-04-19T06:01:29.600Z,10.45
2023-04-19T06:02:33.228Z,10.57
2023-04-19T06:03:36.617Z,10.64
2023-04-19T06:04:40.655Z,10.70
2023-04-19T06:05:44.225Z,10.86
2023-04-19T06:06:47.366Z,10.86
2023-04-19T06:07:55.758Z,10.93
2023-04-19T06:08:55.765Z,10.93
2023-04-19T06:09:58.728Z,10.98
2023-04-19T06:11:11.524Z,11.00
2023-04-19T06:12:06.412Z,11.01
2023-04-19T06:13:08.631Z,10.99
2023-04-19T06:14:13.055Z,11.03
2023-04-19T06:15:17.697Z,11.05
2023-04-19T06:16:20.969Z,11.09
2023-04-19T06:17:25.568Z,11.10
2023-04-19T06:18:29.231Z,11.12
2023-04-19T06:19:33.938Z,11.15
2023-04-19T06:20:37.537Z,11.06
2023-04-19T06:21:39.828Z,10.92
2023-04-19T06:22:44.493Z,10.85
2023-04-19T06:23:46.579Z,10.82
2023-04-19T06:24:48.902Z,10.80
2023-04-19T06:25:51.104Z,10.81
2023-04-19T06:26:53.809Z,10.82
2023-04-19T06:27:56.621Z,10.81
2023-04-19T06:28:59.474Z,10.82
2023-04-19T06:30:03.597Z,10.81
2023-04-19T06:31:06.851Z,10.84
2023-04-19T06:32:11.302Z,10.85
2023-04-19T06:33:13.706Z,10.85
2023-04-19T06:34:16.042Z,10.86
2023-04-19T06:35:18.711Z,10.84
2023-04-19T06:36:21.057Z,10.83
2023-04-19T06:37:23.412Z,10.88
2023-04-19T06:38:26.790Z,10.88
2023-04-19T06:39:29.046Z,10.90
2023-04-19T06:40:31.478Z,10.90
2023-04-19T06:41:33.809Z,10.93
2023-04-19T06:42:36.055Z,10.97
2023-04-19T06:43:40.248Z,11.04
2023-04-19T06:44:42.575Z,11.12
2023-04-19T06:45:45.023Z,11.12
2023-04-19T06:46:47.546Z,11.13
2023-04-19T06:47:49.905Z,11.15
2023-04-19T06:48:52.111Z,11.20
2023-04-19T06:49:55.640Z,11.22
2023-04-19T06:50:58.369Z,11.27
2023-04-19T06:52:00.726Z,11.31
2023-04-19T06:53:04.982Z,11.29
2023-04-19T06:54:07.680Z,11.30
2023-04-19T06:55:10.443Z,11.34
2023-04-19T06:56:14.100Z,11.34
2023-04-19T06:57:18.366Z,11.38
2023-04-19T06:58:20.983Z,11.40
2023-04-19T06:59:25.189Z,11.45
2023-04-19T07:00:27.462Z,11.51
2023-04-19T07:01:29.832Z,11.47
2023-04-19T07:02:32.456Z,11.47
2023-04-19T07:03:36.183Z,11.44
2023-04-19T07:04:38.778Z,11.48
2023-04-19T07:05:41.431Z,11.54
2023-04-19T07:06:43.766Z,11.55
2023-04-19T07:07:46.076Z,11.52
2023-04-19T07:08:50.088Z,11.55
2023-04-19T07:09:52.526Z,11.61
2023-04-19T07:10:56.115Z,11.63
2023-04-19T07:11:58.405Z,11.67
2023-04-19T07:13:00.803Z,11.72
2023-04-19T07:14:03.561Z,11.75
2023-04-19T07:15:07.411Z,11.75
2023-04-19T07:16:10.754Z,11.77
2023-04-19T07:17:13.827Z,11.77
2023-04-19T07:18:16.118Z,11.79
2023-04-19T07:19:20.372Z,11.83
2023-04-19T07:20:22.778Z,11.91
2023-04-19T07:21:26.996Z,11.93
2023-04-19T07:22:29.818Z,12.01
2023-04-19T07:23:32.587Z,12.05
2023-04-19T07:24:34.906Z,12.06
2023-04-19T07:25:37.214Z,12.10
2023-04-19T07:26:39.979Z,12.12
2023-04-19T07:27:42.772Z,12.21
2023-04-19T07:28:45.311Z,12.25
2023-04-19T07:29:48.324Z,12.32
2023-04-19T07:30:50.793Z,12.35
2023-04-19T07:31:55.352Z,12.37
2023-04-19T07:32:58.412Z,12.45
2023-04-19T07:34:01.018Z,12.48
2023-04-19T07:35:03.563Z,12.56
2023-04-19T07:36:07.401Z,12.61
2023-04-19T07:37:10.011Z,12.61
2023-04-19T07:38:12.225Z,12.62
2023-04-19T07:39:14.655Z,12.59
2023-04-19T07:40:17.086Z,12.68
2023-04-19T07:41:19.682Z,12.76
2023-04-19T07:42:22.079Z,12.82
2023-04-19T07:43:24.330Z,12.88
2023-04-19T07:44:28.355Z,12.85
2023-04-19T07:45:31.317Z,12.87
2023-04-19T07:46:33.817Z,12.88
2023-04-19T07:47:36.713Z,12.96
2023-04-19T07:48:39.374Z,13.01
2023-04-19T07:49:43.603Z,13.08
2023-04-19T07:50:46.085Z,13.12
2023-04-19T07:51:48.785Z,13.07
2023-04-19T07:52:51.557Z,13.07
2023-04-19T07:53:54.597Z,13.07
2023-04-19T07:54:57.408Z,13.10
2023-04-19T07:55:59.695Z,13.15
2023-04-19T07:57:02.744Z,13.17
2023-04-19T07:58:05.124Z,13.16
2023-04-19T07:59:09.000Z,13.23
2023-04-19T08:00:12.629Z,13.25
2023-04-19T08:01:17.343Z,13.30
2023-04-19T08:02:20.595Z,13.38
2023-04-19T08:03:23.246Z,13.40
2023-04-19T08:04:27.059Z,13.48
2023-04-19T08:05:30.956Z,13.52
2023-04-19T08:06:33.887Z,13.49
2023-04-19T08:07:36.275Z,13.56
2023-04-19T08:08:38.442Z,13.63
2023-04-19T08:09:41.074Z,13.61
2023-04-19T08:10:44.269Z,13.65
2023-04-19T08:11:46.450Z,13.79
2023-04-19T08:13:03.757Z,13.86
2023-04-19T08:14:06.696Z,13.95
2023-04-19T08:15:05.198Z,13.93
2023-04-19T08:17:24.348Z,14.01
2023-04-19T08:18:10.781Z,14.03
2023-04-19T08:19:12.974Z,14.04
2023-04-19T08:20:15.607Z,14.05
2023-04-19T08:21:18.161Z,14.06
2023-04-19T08:22:22.077Z,14.08
2023-04-19T08:23:31.746Z,14.19
2023-04-19T08:24:30.696Z,14.20
2023-04-19T08:25:33.321Z,14.20
2023-04-19T08:26:35.750Z,14.24
2023-04-19T08:27:38.403Z,14.31
2023-04-19T08:28:40.919Z,14.35
2023-04-19T08:29:43.364Z,14.39
2023-04-19T08:30:45.709Z,14.39
2023-04-19T08:31:48.157Z,14.39
2023-04-19T08:32:56.892Z,14.45
2023-04-19T08:34:00.748Z,14.47
2023-04-19T08:35:03.697Z,14.50
2023-04-19T08:36:07.182Z,14.54
2023-04-19T08:37:10.633Z,14.60
2023-04-19T08:38:13.445Z,14.65
2023-04-19T08:39:29.185Z,14.69
2023-04-19T08:40:21.693Z,14.58
2023-04-19T08:41:26.281Z,14.66
2023-04-19T08:42:36.313Z,14.73
2023-04-19T08:43:36.690Z,14.66
2023-04-19T08:44:49.217Z,14.60
2023-04-19T08:45:51.171Z,14.60
2023-04-19T08:46:53.957Z,14.62
2023-04-19T08:48:01.477Z,14.69
2023-04-19T08:49:07.942Z,14.73
2023-04-19T08:51:17.559Z,14.82
2023-04-19T08:52:21.639Z,14.87
2023-04-19T08:53:26.306Z,14.79
2023-04-19T08:54:32.183Z,14.79
2023-04-19T08:55:36.243Z,14.85
2023-04-19T08:56:39.131Z,14.91
2023-04-19T08:57:41.802Z,14.86
2023-04-19T08:59:00.384Z,14.92
2023-04-19T08:59:50.030Z,14.93
2023-04-19T09:00:53.377Z,14.96
2023-04-19T09:01:57.375Z,14.98
2023-04-19T09:02:59.834Z,15.05
2023-04-19T09:04:20.812Z,15.13
2023-04-19T09:05:14.057Z,15.11
2023-04-19T09:06:17.554Z,15.05
2023-04-19T09:07:26.704Z,14.99
2023-04-19T09:08:30.869Z,15.02
2023-04-19T09:09:43.109Z,14.99
2023-04-19T09:10:45.218Z,14.96
2023-04-19T09:11:52.412Z,15.00
2023-04-19T09:13:03.786Z,14.99
2023-04-19T09:14:11.758Z,15.06
2023-04-19T09:15:15.739Z,15.11
2023-04-19T09:16:25.465Z,15.14
2023-04-19T09:17:28.543Z,15.15
2023-04-19T09:18:33.134Z,15.14
2023-04-19T09:20:49.582Z,15.35
2023-04-19T09:21:53.304Z,15.16
2023-04-19T09:23:09.097Z,15.23
2023-04-19T09:24:11.358Z,15.21
2023-04-19T09:25:41.845Z,15.24
2023-04-19T09:26:30.566Z,15.16
2023-04-19T09:27:35.766Z,15.09
2023-04-19T09:28:39.112Z,15.10
2023-04-19T09:29:41.695Z,15.08
2023-04-19T09:30:58.270Z,15.18
2023-04-19T09:31:58.357Z,15.26
2023-04-19T09:33:01.302Z,15.36
2023-04-19T09:34:15.910Z,15.43
2023-04-19T09:35:18.732Z,15.40
2023-04-19T09:36:31.606Z,15.50
2023-04-19T09:38:49.616Z,15.57
2023-04-19T09:39:53.130Z,15.64
2023-04-19T09:41:10.700Z,15.53
2023-04-19T09:42:13.137Z,15.55
2023-04-19T09:43:53.150Z,15.50
2023-04-19T09:45:44.583Z,15.66
2023-04-19T09:46:51.628Z,15.70
2023-04-19T09:48:08.105Z,15.75
2023-04-19T09:49:33.717Z,15.70
2023-04-19T09:50:33.690Z,15.70
2023-04-19T09:51:48.014Z,15.83
2023-04-19T09:52:52.691Z,15.84
2023-04-19T09:53:56.089Z,15.86
2023-04-19T09:55:03.102Z,15.95
2023-04-19T09:56:09.371Z,15.89
2023-04-19T09:57:13.791Z,16.00
2023-04-19T09:58:17.826Z,15.96
2023-04-19T09:59:21.597Z,16.02
2023-04-19T10:00:25.141Z,16.01
2023-04-19T10:01:28.970Z,16.06
2023-04-19T10:02:32.926Z,16.16
2023-04-19T10:03:36.656Z,16.17
2023-04-19T10:04:59.682Z,16.10
2023-04-19T10:05:46.433Z,16.18
2023-04-19T10:07:19.477Z,16.09
2023-04-19T10:07:59.850Z,15.97
2023-04-19T10:09:04.406Z,15.83
2023-04-19T10:10:19.104Z,15.87
2023-04-19T10:11:17.757Z,15.96
2023-04-19T10:12:46.292Z,15.99
2023-04-19T10:13:29.160Z,16.06
2023-04-19T10:14:35.558Z,16.04
2023-04-19T10:16:43.865Z,16.11
2023-04-19T10:17:47.557Z,16.25
2023-04-19T10:18:52.643Z,16.32
2023-04-19T10:20:01.533Z,16.35
2023-04-19T10:21:07.640Z,16.48
2023-04-19T10:22:12.126Z,16.64
2023-04-19T10:23:14.519Z,16.77
2023-04-19T10:24:18.965Z,16.86
2023-04-19T10:25:25.785Z,16.98
2023-04-19T10:26:28.377Z,17.04
2023-04-19T10:27:34.369Z,17.21
2023-04-19T10:28:37.427Z,17.31
2023-04-19T10:30:07.574Z,17.45
2023-04-19T10:32:31.062Z,18.09
2023-04-19T10:33:36.843Z,18.08
2023-04-19T10:34:42.988Z,17.95
2023-04-19T10:35:46.408Z,17.90
2023-04-19T10:36:49.809Z,17.72
2023-04-19T10:38:13.233Z,17.66
2023-04-19T10:39:39.568Z,17.54
2023-04-19T10:41:00.219Z,17.40
2023-04-19T10:42:02.716Z,17.26
2023-04-19T10:43:14.684Z,17.21
2023-04-19T10:44:17.077Z,17.41
2023-04-19T10:45:34.225Z,17.55
2023-04-19T10:46:41.885Z,17.73
2023-04-19T10:47:45.078Z,17.91
2023-04-19T10:49:00.840Z,17.71
2023-04-19T10:50:04.986Z,17.57
2023-04-19T10:51:17.399Z,17.47
2023-04-19T10:52:29.598Z,17.38
2023-04-19T10:53:48.461Z,17.44
2023-04-19T10:54:55.705Z,17.51
2023-04-19T10:55:58.431Z,17.51
2023-04-19T10:57:06.488Z,17.55
2023-04-19T10:58:08.781Z,17.50
2023-04-19T10:59:17.362Z,17.43
2023-04-19T11:00:25.329Z,17.48
2023-04-19T11:01:40.521Z,17.44
2023-04-19T11:02:43.870Z,17.35
2023-04-19T11:03:50.015Z,17.38
2023-04-19T11:04:58.250Z,17.46
2023-04-19T11:06:19.550Z,17.43
2023-04-19T11:07:21.848Z,17.27
2023-04-19T11:08:25.095Z,17.19
2023-04-19T11:09:40.974Z,17.33
2023-04-19T11:10:44.586Z,17.32
2023-04-19T11:11:47.288Z,17.37
2023-04-19T11:12:51.417Z,17.32
2023-04-19T11:13:57.264Z,17.30
2023-04-19T11:15:00.455Z,17.46
2023-04-19T11:16:10.023Z,17.48
2023-04-19T11:17:18.925Z,17.22
2023-04-19T11:18:21.165Z,17.37
2023-04-19T11:19:23.478Z,17.20
2023-04-19T11:20:25.816Z,17.17
2023-04-19T11:21:30.254Z,17.20
2023-04-19T11:22:46.778Z,17.21
2023-04-19T11:23:51.946Z,17.16
2023-04-19T11:24:55.448Z,17.13
2023-04-19T11:25:58.473Z,17.04
2023-04-19T11:27:01.426Z,16.98
2023-04-19T11:28:03.933Z,17.17
2023-04-19T11:29:06.244Z,17.24
2023-04-19T11:30:11.499Z,17.19
2023-04-19T11:31:15.179Z,17.01
2023-04-19T11:32:21.005Z,17.01
2023-04-19T11:33:25.126Z,17.01
2023-04-19T11:34:27.831Z,17.15
2023-04-19T11:35:29.956Z,17.23
2023-04-19T11:36:33.360Z,17.24
2023-04-19T11:37:36.754Z,17.36
2023-04-19T11:38:40.280Z,17.26
2023-04-19T11:39:46.936Z,17.34
2023-04-19T11:40:53.224Z,17.42
2023-04-19T11:41:56.365Z,17.49
2023-04-19T11:43:00.756Z,17.38
2023-04-19T11:44:03.124Z,17.45
2023-04-19T11:45:13.161Z,17.34
2023-04-19T11:46:12.301Z,17.35
2023-04-19T11:47:15.225Z,17.41
2023-04-19T11:48:17.607Z,17.42
2023-04-19T11:49:30.953Z,17.53
2023-04-19T11:50:38.681Z,17.52
2023-04-19T11:51:43.314Z,17.35
2023-04-19T11:52:50.548Z,17.26
2023-04-19T11:53:52.865Z,17.17
2023-04-19T11:54:55.157Z,16.90
2023-04-19T11:56:06.959Z,16.85
2023-04-19T11:57:09.752Z,16.61
2023-04-19T11:58:28.656Z,16.48
2023-04-19T11:59:36.918Z,16.45
2023-04-19T12:00:39.275Z,16.32
2023-04-19T12:01:41.986Z,16.36
2023-04-19T12:02:47.508Z,16.32
2023-04-19T12:03:56.097Z,16.30
2023-04-19T12:05:02.858Z,16.26
2023-04-19T12:06:07.896Z,16.13
2023-04-19T12:07:10.874Z,16.26
2023-04-19T12:08:13.170Z,16.13
2023-04-19T12:09:18.930Z,16.12
2023-04-19T12:10:21.918Z,16.11
2023-04-19T12:11:28.286Z,15.97
2023-04-19T12:12:34.060Z,15.79
2023-04-19T12:13:37.305Z,15.73
2023-04-19T12:14:41.548Z,15.61
2023-04-19T12:15:47.420Z,15.58
2023-04-19T12:17:11.673Z,15.67
2023-04-19T12:18:14.622Z,15.55
2023-04-19T12:19:19.805Z,15.58
2023-04-19T12:21:47.121Z,15.81
2023-04-19T12:22:50.311Z,15.61
2023-04-19T12:23:56.976Z,15.53
2023-04-19T12:24:59.520Z,15.46
2023-04-19T12:26:06.787Z,15.61
2023-04-19T12:27:14.699Z,15.64
2023-04-19T12:28:17.232Z,15.57
2023-04-19T12:29:19.852Z,15.55
2023-04-19T12:30:22.394Z,15.57
2023-04-19T12:31:25.371Z,15.72
2023-04-19T12:32:28.415Z,15.79
2023-04-19T12:33:30.821Z,15.87
2023-04-19T12:34:33.600Z,15.77
2023-04-19T12:35:36.923Z,15.76
2023-04-19T12:36:39.812Z,15.78
2023-04-19T12:37:42.590Z,15.85
2023-04-19T12:38:45.568Z,15.78
2023-04-19T12:39:48.337Z,15.72
2023-04-19T12:40:50.716Z,15.75
2023-04-19T12:41:55.058Z,15.66
2023-04-19T12:42:58.906Z,15.61
2023-04-19T12:44:01.989Z,15.62
2023-04-19T12:45:05.144Z,15.70
2023-04-19T12:46:08.105Z,15.58
2023-04-19T12:47:10.298Z,15.58
2023-04-19T12:48:12.570Z,15.60
2023-04-19T12:49:17.179Z,15.63
2023-04-19T12:50:19.616Z,15.68
2023-04-19T12:51:22.334Z,15.65
2023-04-19T12:52:24.597Z,15.75
2023-04-19T12:53:26.880Z,15.85
2023-04-19T12:54:29.229Z,15.81
2023-04-19T12:55:34.976Z,15.76
2023-04-19T12:56:37.832Z,15.74
2023-04-19T12:57:41.087Z,15.62
2023-04-19T12:58:44.522Z,15.71
2023-04-19T12:59:47.266Z,15.68
2023-04-19T13:00:50.432Z,15.65
2023-04-19T13:01:53.021Z,15.51
2023-04-19T13:02:55.908Z,15.65
2023-04-19T13:04:13.624Z,15.65
2023-04-19T13:05:06.969Z,15.76
2023-04-19T13:06:11.229Z,15.85
2023-04-19T13:07:14.256Z,15.84
2023-04-19T13:08:18.420Z,15.70
2023-04-19T13:09:20.814Z,15.57
2023-04-19T13:10:26.052Z,15.48
2023-04-19T13:11:28.475Z,15.32
2023-04-19T13:12:30.774Z,15.36
2023-04-19T13:13:34.301Z,15.37
2023-04-19T13:14:36.800Z,15.40
2023-04-19T13:15:41.519Z,15.31
2023-04-19T13:16:43.898Z,15.40
2023-04-19T13:17:46.598Z,15.36
2023-04-19T13:18:50.577Z,15.24
2023-04-19T13:19:53.355Z,15.22
2023-04-19T13:20:55.833Z,15.16
2023-04-19T13:21:59.576Z,15.11
2023-04-19T13:23:02.223Z,15.18
2023-04-19T13:24:05.180Z,14.96
2023-04-19T13:25:08.479Z,14.90
2023-04-19T13:26:12.320Z,14.95
2023-04-19T13:27:18.958Z,14.91
2023-04-19T13:28:21.355Z,14.98
2023-04-19T13:29:23.574Z,15.10
2023-04-19T13:30:27.366Z,14.89
2023-04-19T13:31:30.164Z,14.83
2023-04-19T13:32:32.902Z,14.85
2023-04-19T13:33:35.808Z,14.93
2023-04-19T13:34:40.195Z,14.95
2023-04-19T13:35:45.565Z,14.96
2023-04-19T13:36:47.831Z,14.98
2023-04-19T13:37:50.678Z,14.98
2023-04-19T13:38:53.487Z,14.93
2023-04-19T13:40:07.088Z,14.82
2023-04-19T13:41:00.317Z,14.86
2023-04-19T13:42:02.882Z,14.71
2023-04-19T13:43:05.454Z,14.75
2023-04-19T13:44:07.793Z,14.64
2023-04-19T13:45:11.102Z,14.48
2023-04-19T13:46:14.212Z,14.47
2023-04-19T13:47:16.484Z,14.47
2023-04-19T13:48:18.806Z,14.42
2023-04-19T13:49:21.251Z,14.44
2023-04-19T13:50:23.509Z,14.52
2023-04-19T13:51:27.982Z,14.61
2023-04-19T13:52:30.928Z,14.56
2023-04-19T13:53:34.272Z,14.48
2023-04-19T13:54:36.711Z,14.42
2023-04-19T13:55:39.625Z,14.44
2023-04-19T13:56:42.335Z,14.53
2023-04-19T13:57:44.627Z,14.40
2023-04-19T13:58:47.679Z,14.32
2023-04-19T13:59:49.871Z,14.38
2023-04-19T14:00:55.038Z,14.48
2023-04-19T14:01:57.933Z,14.53
2023-04-19T14:03:00.861Z,14.51
2023-04-19T14:04:04.858Z,14.46
2023-04-19T14:05:09.281Z,14.44
2023-04-19T14:06:11.991Z,14.37
2023-04-19T14:07:14.517Z,14.40
2023-04-19T14:08:17.683Z,14.37